Bookmark and Share
Track history (hours):
 

Shagang Hongfa

Last reported at 2014-Apr-05 13:11 UTC. Time now 2014-Apr-18 00:21 UTC.
Position S 26°14' E 154°04'.
Warning: this ship's position is 12 days out of date.

Length 292 m; draft 15 m.

Type: Cargo ship. MMSI: 566178000.

NotesDate/timePositionNaut miles runAvg speedWind from/ knotsBaromVisibWave heightAir tempDewpointWater temp
2014-Apr-05 13:11S 26°14' E 154°04'610.1
2014-Apr-05 12:33S 26°20' E 154°04'1010.3
2014-Apr-05 11:33S 26°31' E 154°04'1010.1
2014-Apr-05 10:31S 26°41' E 154°04'1010.3
2014-Apr-05 09:33S 26°51' E 154°04'3110.2
2014-Apr-05 06:33S 27°22' E 154°04'1210.1
2014-Apr-05 05:23S 27°33' E 154°04'910.0
2014-Apr-05 04:32S 27°42' E 154°04'10 9.8
2014-Apr-05 03:33S 27°52' E 154°04'24 9.9
2014-Apr-05 01:09S 28°15' E 154°04'271 8.8
2014-Apr-03 18:21S 32°36' E 152°36'910.8
2014-Apr-03 17:33S 32°41' E 152°28'1111.2
2014-Apr-03 16:32S 32°49' E 152°18'1111.7
2014-Apr-03 15:33S 32°54' E 152°06'1211.5
2014-Apr-03 14:32S 32°57' E 151°53'6 6.0
2014-Apr-03 13:33S 32°55' E 151°46'2 2.0
2014-Apr-03 12:33S 32°53' E 151°45'0 0.0
2014-Apr-03 11:28S 32°53' E 151°45'0 0.0
2014-Apr-03 10:28S 32°53' E 151°45'0 0.0
2014-Apr-03 09:28S 32°53' E 151°45'0 0.0
2014-Apr-03 08:28S 32°53' E 151°45'0 0.0
2014-Apr-03 07:28S 32°53' E 151°45'0 0.0
2014-Apr-03 06:28S 32°53' E 151°45'0 0.0
2014-Apr-03 05:31S 32°53' E 151°45'0 0.0
2014-Apr-03 04:28S 32°53' E 151°45'0 0.0
2014-Apr-03 03:31S 32°53' E 151°45'0 0.0
2014-Apr-03 02:31S 32°53' E 151°45'0 0.0
2014-Apr-03 01:31S 32°53' E 151°45'0 0.0
2014-Apr-03 00:28S 32°53' E 151°45'0 0.0
2014-Apr-02 23:31S 32°53' E 151°45'0 0.0
2014-Apr-02 22:28S 32°53' E 151°45'0 0.0
2014-Apr-02 21:31S 32°53' E 151°45'0 0.0
2014-Apr-02 20:28S 32°53' E 151°45'0 0.0
2014-Apr-02 19:28S 32°53' E 151°45'0 0.0
2014-Apr-02 18:31S 32°53' E 151°45'0 0.0
2014-Apr-02 17:31S 32°53' E 151°45'0 0.0
2014-Apr-02 16:31S 32°53' E 151°45'0 0.0
2014-Apr-02 15:31S 32°53' E 151°45'0 0.0
2014-Apr-02 14:31S 32°53' E 151°45'0 0.0
2014-Apr-02 13:31S 32°53' E 151°45'0 0.0
2014-Apr-02 12:28S 32°53' E 151°45'0 0.0
2014-Apr-02 11:28S 32°53' E 151°45'0 0.0
2014-Apr-02 10:31S 32°53' E 151°45'0 0.0
2014-Apr-02 09:28S 32°53' E 151°45'0 0.0
2014-Apr-02 08:28S 32°53' E 151°45'0 0.0
2014-Apr-02 07:31S 32°53' E 151°45'0 0.0
2014-Apr-02 06:31S 32°53' E 151°45'0 0.0
2014-Apr-02 05:28S 32°53' E 151°45'0 0.0
2014-Apr-02 04:31S 32°53' E 151°45'0 0.0
2014-Apr-02 03:28S 32°53' E 151°45'0 0.0
2014-Apr-02 02:33S 32°53' E 151°45'2 2.4
2014-Apr-02 01:33S 32°55' E 151°47'5 4.7
2014-Apr-02 00:33S 32°59' E 151°49'2 0.6
2014-Apr-01 21:13S 33°00' E 151°48'0 0.0
2014-Apr-01 20:31S 33°00' E 151°48'0 0.0
2014-Apr-01 19:25S 33°00' E 151°48'0 0.0
2014-Apr-01 18:31S 33°00' E 151°48'0 0.0
2014-Apr-01 17:31S 33°00' E 151°48'0 0.1
2014-Apr-01 16:31S 33°00' E 151°48'0 0.0
2014-Apr-01 15:31S 33°00' E 151°48'0 0.0
2014-Apr-01 14:31S 33°00' E 151°48'0 0.0
2014-Apr-01 13:31S 33°00' E 151°48'0 0.0
2014-Apr-01 12:19S 33°01' E 151°48'0 0.0
2014-Apr-01 11:31S 33°00' E 151°48'0 0.0
2014-Apr-01 10:31S 33°01' E 151°48'0 0.0
2014-Apr-01 09:31S 33°00' E 151°48'0 0.0
2014-Apr-01 08:19S 33°00' E 151°48'0 0.0
2014-Apr-01 07:25S 33°00' E 151°48'0 0.0
2014-Apr-01 06:31S 33°00' E 151°48'0 0.0
2014-Apr-01 05:31S 33°00' E 151°48'0 0.1
2014-Apr-01 02:31S 33°00' E 151°48'6 6.1
2014-Apr-01 01:33S 33°01' E 151°55'10 9.8
2014-Apr-01 00:33S 32°56' E 152°05'1313.4
2014-Mar-31 23:33S 32°48' E 152°18'1414.1
2014-Mar-31 22:33S 32°39' E 152°31'29614.1
2014-Mar-31 01:33S 27°54' E 154°04'1515.3
2014-Mar-31 00:33S 27°39' E 154°04'  

Dump ship's entire track history

sailing weather and tide predictions

Shagang Hongfa — 9V9138 — position and weather